Time;durP1;ratioP1;P1;durP2;ratioP2;P2;SDS_P1;SDS_P2;PMS_P1;PMS_P2;Temp;Humidity;BMP_temperature;BMP_pressure;BME280_temperature;BME280_humidity;BME280_pressure;Samples;Min_cycle;Max_cycle;Signal;HPM_P1;HPM_P2
2020/12/01 00:00:52;;;;;;;28.50;14.90;;;0.40;96.00;;;;;;5075206;28;20108;-86
2020/12/01 00:03:17;;;;;;;33.05;15.57;;;0.40;96.00;;;;;;5075163;28;20093;-88
2020/12/01 00:05:43;;;;;;;28.10;17.42;;;0.40;96.10;;;;;;5075113;28;20025;-89
2020/12/01 00:08:09;;;;;;;37.30;19.05;;;0.40;96.10;;;;;;5074277;28;20028;-83
2020/12/01 00:10:36;;;;;;;32.30;18.25;;;0.40;96.10;;;;;;5072884;28;20497;-84
2020/12/01 00:13:03;;;;;;;28.25;16.05;;;0.40;96.10;;;;;;5073048;28;20031;-86
2020/12/01 00:15:29;;;;;;;30.00;18.38;;;0.40;96.20;;;;;;5073983;28;20381;-85
2020/12/01 00:17:55;;;;;;;31.77;18.95;;;0.40;96.10;;;;;;5076323;28;20433;-86
2020/12/01 00:20:23;;;;;;;34.55;17.92;;;0.40;96.20;;;;;;5074088;28;20121;-85
2020/12/01 00:22:49;;;;;;;30.27;19.45;;;0.40;96.20;;;;;;5074076;28;20020;-85
2020/12/01 00:25:17;;;;;;;32.08;19.30;;;0.40;96.20;;;;;;5073838;28;20488;-84
2020/12/01 00:27:43;;;;;;;33.63;18.30;;;0.50;96.20;;;;;;5071395;28;20024;-85
2020/12/01 00:30:12;;;;;;;33.30;19.35;;;0.50;96.20;;;;;;5074558;28;20024;-85
2020/12/01 00:32:39;;;;;;;30.13;17.60;;;0.50;96.20;;;;;;5074120;28;20021;-85
2020/12/01 00:35:07;;;;;;;35.30;20.25;;;0.50;96.20;;;;;;5075006;28;20033;-86
2020/12/01 00:37:35;;;;;;;32.88;17.85;;;0.50;96.20;;;;;;5072685;28;20016;-84
2020/12/01 00:40:01;;;;;;;37.72;21.30;;;0.50;96.10;;;;;;5074429;28;20028;-85
2020/12/01 00:42:27;;;;;;;33.85;19.67;;;0.50;96.20;;;;;;5080223;28;20465;-85
2020/12/01 00:44:53;;;;;;;34.55;18.25;;;0.50;96.20;;;;;;5089097;28;20028;-85
2020/12/01 00:47:19;;;;;;;39.55;21.75;;;0.50;96.20;;;;;;5076634;28;20050;-86
2020/12/01 00:49:45;;;;;;;35.05;19.75;;;0.50;96.10;;;;;;5077542;28;20020;-85
2020/12/01 00:52:10;;;;;;;37.17;20.60;;;0.50;96.20;;;;;;5074107;28;20044;-85
2020/12/01 00:54:36;;;;;;;34.92;19.60;;;0.40;96.10;;;;;;5077204;28;20099;-85
2020/12/01 00:57:02;;;;;;;36.05;21.58;;;0.40;96.10;;;;;;5085560;28;20031;-83
2020/12/01 00:59:28;;;;;;;38.67;21.17;;;0.50;96.20;;;;;;5082480;28;20020;-86
2020/12/01 01:01:54;;;;;;;34.97;21.73;;;0.50;96.20;;;;;;5083127;28;20017;-85
2020/12/01 01:04:19;;;;;;;35.40;21.92;;;0.40;96.20;;;;;;5074178;28;20020;-87
2020/12/01 01:06:49;;;;;;;34.85;19.13;;;0.50;96.20;;;;;;5073648;28;20058;-87
2020/12/01 01:09:16;;;;;;;31.90;20.30;;;0.50;96.20;;;;;;5081319;28;20047;-86
2020/12/01 01:11:42;;;;;;;41.13;22.63;;;0.50;96.20;;;;;;5084601;28;20104;-87
2020/12/01 01:14:08;;;;;;;32.92;20.98;;;0.50;96.20;;;;;;5084931;28;20029;-86
2020/12/01 01:16:34;;;;;;;35.70;20.40;;;0.50;96.20;;;;;;5075646;28;20345;-88
2020/12/01 01:19:01;;;;;;;40.58;23.20;;;0.50;96.10;;;;;;5094244;28;20464;-86
2020/12/01 01:21:27;;;;;;;;;;;0.50;96.20;;;;;;5089823;28;20044;-87
2020/12/01 01:23:53;;;;;;;28.65;19.02;;;0.50;96.10;;;;;;5079297;28;19904;-87
2020/12/01 01:26:19;;;;;;;32.78;20.58;;;0.50;96.10;;;;;;5083634;28;20017;-87
2020/12/01 01:28:45;;;;;;;34.75;20.27;;;0.50;96.20;;;;;;5098102;28;20024;-86
2020/12/01 01:31:11;;;;;;;34.20;22.13;;;0.50;96.20;;;;;;5085476;28;20032;-86
2020/12/01 01:33:37;;;;;;;35.35;21.85;;;0.50;96.20;;;;;;5085164;28;20031;-89
2020/12/01 01:36:03;;;;;;;31.73;20.15;;;0.60;96.20;;;;;;5083765;28;20020;-89
2020/12/01 01:38:29;;;;;;;31.40;20.05;;;0.60;96.10;;;;;;5086275;28;20115;-89
2020/12/01 01:40:56;;;;;;;35.13;19.40;;;0.60;96.10;;;;;;5080282;28;20021;-88
2020/12/01 01:43:22;;;;;;;31.92;20.08;;;0.50;96.10;;;;;;5080666;28;20021;-86
2020/12/01 01:45:49;;;;;;;31.23;20.27;;;0.50;96.10;;;;;;5077280;28;20134;-88
2020/12/01 01:48:36;;;;;;;29.25;18.20;;;0.50;96.10;;;;;;5080307;28;20373;-87
2020/12/01 01:51:18;;;;;;;34.03;19.58;;;0.60;96.20;;;;;;5072564;28;20028;-87
2020/12/01 01:53:50;;;;;;;29.45;17.58;;;0.50;96.00;;;;;;5084318;28;20050;-86
2020/12/01 01:56:20;;;;;;;33.58;19.50;;;0.50;96.10;;;;;;5087468;28;20020;-86
2020/12/01 01:58:47;;;;;;;32.30;19.63;;;0.50;96.10;;;;;;5073563;28;20047;-89
2020/12/01 02:01:16;;;;;;;38.42;20.17;;;0.50;96.10;;;;;;5074136;28;20039;-86
2020/12/01 02:03:45;;;;;;;32.47;18.75;;;0.50;96.20;;;;;;5078410;28;20028;-87
2020/12/01 02:06:19;;;;;;;30.35;19.20;;;0.50;96.10;;;;;;5080558;28;20025;-87
2020/12/01 02:08:53;;;;;;;29.23;18.00;;;0.50;96.20;;;;;;5073923;28;20031;-86
2020/12/01 02:11:21;;;;;;;30.27;19.17;;;0.50;96.20;;;;;;5072627;28;20124;-88
2020/12/01 02:14:05;;;;;;;28.63;18.27;;;0.50;96.20;;;;;;5081871;28;20100;-87
2020/12/01 02:16:33;;;;;;;32.60;19.33;;;0.50;96.20;;;;;;5077636;28;20060;-86
2020/12/01 02:18:58;;;;;;;;;;;0.50;96.20;;;;;;5085355;28;20040;-88
2020/12/01 02:21:35;;;;;;;27.70;17.75;;;0.50;96.10;;;;;;5090838;28;19927;-86
2020/12/01 02:24:03;;;;;;;30.95;19.15;;;0.50;96.20;;;;;;5076870;28;20020;-87
2020/12/01 02:26:30;;;;;;;31.25;20.42;;;0.50;96.20;;;;;;5080176;28;20104;-87
2020/12/01 02:28:57;;;;;;;27.23;16.17;;;0.50;96.30;;;;;;5078503;28;20066;-88
2020/12/01 02:31:23;;;;;;;27.58;15.82;;;0.50;96.20;;;;;;5077532;28;20028;-88
2020/12/01 02:33:49;;;;;;;26.33;18.42;;;0.50;96.20;;;;;;5079159;28;21395;-88
2020/12/01 02:36:15;;;;;;;30.95;20.08;;;0.50;96.20;;;;;;5078058;28;20485;-88
2020/12/01 02:38:41;;;;;;;27.65;18.38;;;0.50;96.30;;;;;;5078240;28;20501;-89
2020/12/01 02:41:07;;;;;;;37.25;18.77;;;0.50;96.20;;;;;;5078821;28;20028;-89
2020/12/01 02:43:33;;;;;;;31.67;19.40;;;0.50;96.20;;;;;;5089103;28;20025;-88
2020/12/01 02:45:59;;;;;;;28.23;19.35;;;0.40;96.20;;;;;;5092084;28;20020;-86
2020/12/01 02:48:25;;;;;;;31.70;20.65;;;0.50;96.20;;;;;;5094235;28;20020;-87
2020/12/01 02:50:51;;;;;;;33.00;20.70;;;0.40;96.20;;;;;;5081757;28;20025;-87
2020/12/01 02:53:17;;;;;;;34.75;20.85;;;0.40;96.20;;;;;;5081501;28;20021;-88
2020/12/01 02:55:42;;;;;;;29.02;19.50;;;0.40;96.20;;;;;;5083205;28;20055;-90
2020/12/01 02:58:08;;;;;;;32.05;20.40;;;0.40;96.20;;;;;;5086756;28;20035;-87
2020/12/01 03:00:34;;;;;;;31.65;19.58;;;0.40;96.20;;;;;;5080315;28;20047;-88
2020/12/01 03:03:00;;;;;;;35.05;20.30;;;0.30;96.20;;;;;;5079982;28;20515;-88
2020/12/01 03:05:26;;;;;;;35.25;22.17;;;0.30;96.20;;;;;;5075398;28;20036;-89
2020/12/01 03:07:52;;;;;;;35.38;20.70;;;0.30;96.30;;;;;;5076365;28;20051;-87
2020/12/01 03:10:18;;;;;;;36.15;20.60;;;0.30;96.30;;;;;;5076771;28;20020;-86
2020/12/01 03:12:44;;;;;;;31.23;19.80;;;0.40;96.30;;;;;;5076587;28;20019;-87
2020/12/01 03:15:13;;;;;;;32.88;20.67;;;0.40;96.30;;;;;;5077355;28;20020;-87
2020/12/01 03:17:39;;;;;;;40.53;24.17;;;0.40;96.30;;;;;;5075913;28;20539;-87
2020/12/01 03:20:05;;;;;;;37.75;21.77;;;0.40;96.30;;;;;;5075514;28;20101;-86
2020/12/01 03:22:31;;;;;;;36.40;22.30;;;0.40;96.30;;;;;;5076269;28;20426;-87
2020/12/01 03:24:56;;;;;;;45.83;27.08;;;0.40;96.20;;;;;;5076230;28;20063;-87
2020/12/01 03:27:22;;;;;;;34.05;20.23;;;0.40;96.30;;;;;;5075199;28;20021;-87
2020/12/01 03:29:48;;;;;;;29.83;21.05;;;0.40;96.20;;;;;;5076283;28;20082;-86
2020/12/01 03:32:14;;;;;;;33.80;22.13;;;0.40;96.10;;;;;;5077435;28;20012;-90
2020/12/01 03:34:40;;;;;;;33.50;22.10;;;0.40;96.20;;;;;;5079756;28;20413;-87
2020/12/01 03:37:06;;;;;;;35.83;22.27;;;0.40;96.20;;;;;;5076910;28;20552;-86
2020/12/01 03:39:32;;;;;;;38.65;23.38;;;0.50;96.10;;;;;;5080048;28;20075;-87
2020/12/01 03:41:58;;;;;;;36.03;20.70;;;0.50;96.10;;;;;;5079449;28;20432;-87
2020/12/01 03:44:23;;;;;;;37.53;21.58;;;0.50;96.00;;;;;;5074747;28;20017;-87
2020/12/01 03:46:49;;;;;;;33.58;22.90;;;0.40;95.80;;;;;;5074000;28;20062;-87
2020/12/01 03:49:15;;;;;;;34.70;22.48;;;0.40;95.90;;;;;;5075315;28;20074;-87
2020/12/01 03:51:40;;;;;;;37.08;23.13;;;0.40;95.90;;;;;;5075186;28;20520;-86
2020/12/01 03:54:06;;;;;;;35.90;23.25;;;0.40;95.80;;;;;;5069055;28;20025;-86
2020/12/01 03:56:32;;;;;;;30.55;20.58;;;0.40;95.80;;;;;;5075519;28;20044;-86
2020/12/01 03:58:58;;;;;;;31.38;19.73;;;0.40;95.80;;;;;;5078558;28;20031;-85
2020/12/01 04:01:24;;;;;;;33.88;22.73;;;0.30;95.80;;;;;;5076846;28;20408;-87
2020/12/01 04:03:49;;;;;;;35.08;21.88;;;0.40;95.80;;;;;;5072797;28;20020;-86
2020/12/01 04:06:15;;;;;;;38.75;22.13;;;0.30;95.80;;;;;;5098655;28;20050;-89
2020/12/01 04:08:41;;;;;;;33.70;22.45;;;0.40;95.80;;;;;;5083373;28;20021;-88
2020/12/01 04:11:07;;;;;;;33.33;19.42;;;0.40;95.80;;;;;;5076137;28;20433;-88
2020/12/01 04:13:33;;;;;;;31.25;18.42;;;0.40;95.70;;;;;;5075534;28;20025;-88
2020/12/01 04:16:00;;;;;;;34.50;19.90;;;0.40;95.70;;;;;;5082012;28;20059;-87
2020/12/01 04:18:26;;;;;;;29.60;19.63;;;0.40;95.70;;;;;;5074655;28;20037;-86
2020/12/01 04:20:52;;;;;;;30.23;19.08;;;0.40;95.60;;;;;;5081823;28;20271;-88
2020/12/01 04:23:18;;;;;;;30.48;20.67;;;0.30;95.60;;;;;;5088194;28;20024;-86
2020/12/01 04:25:43;;;;;;;33.55;19.20;;;0.40;95.70;;;;;;5080563;28;20089;-86
2020/12/01 04:28:09;;;;;;;32.45;18.70;;;0.40;95.60;;;;;;5073921;28;20023;-85
2020/12/01 04:30:35;;;;;;;31.13;19.50;;;0.40;95.60;;;;;;5089442;28;20024;-85
2020/12/01 04:33:01;;;;;;;29.17;18.73;;;0.40;95.60;;;;;;5083551;28;20031;-85
2020/12/01 04:35:28;;;;;;;32.42;19.38;;;0.40;95.60;;;;;;5084364;28;20021;-86
2020/12/01 04:37:57;;;;;;;25.50;16.50;;;0.40;95.50;;;;;;5079666;28;20024;-85
2020/12/01 04:40:29;;;;;;;24.52;17.23;;;0.40;95.50;;;;;;5094344;28;20257;-87
2020/12/01 04:43:04;;;;;;;26.50;17.90;;;0.40;95.50;;;;;;5066341;28;20029;-87
2020/12/01 04:45:30;;;;;;;28.02;18.20;;;0.40;95.50;;;;;;5076566;28;20025;-85
2020/12/01 04:48:08;;;;;;;29.90;19.95;;;0.40;95.60;;;;;;5074094;28;20021;-86
2020/12/01 04:50:50;;;;;;;24.45;15.52;;;0.40;95.40;;;;;;5073848;28;20035;-87
2020/12/01 04:53:37;;;;;;;25.42;17.10;;;0.40;95.30;;;;;;5070641;28;20027;-85
2020/12/01 04:56:17;;;;;;;23.25;17.45;;;0.40;95.30;;;;;;5090233;28;20016;-88
2020/12/01 04:58:58;;;;;;;24.75;16.58;;;0.30;95.20;;;;;;5081237;28;20028;-85
2020/12/01 05:01:33;;;;;;;30.83;16.73;;;0.30;95.20;;;;;;5086620;28;20444;-83
2020/12/01 05:04:19;;;;;;;25.27;16.30;;;0.30;95.20;;;;;;5075987;28;20389;-87
2020/12/01 05:09:42;;;;;;;24.15;16.27;;;0.30;94.80;;;;;;5074768;28;20103;-88
2020/12/01 05:12:34;;;;;;;20.65;13.27;;;0.30;94.90;;;;;;5071384;28;20051;-87
2020/12/01 05:15:13;;;;;;;31.27;17.23;;;0.30;94.90;;;;;;5060053;28;20040;-88
2020/12/01 05:18:15;;;;;;;21.60;15.45;;;0.30;94.90;;;;;;5080097;28;20035;-88
2020/12/01 05:20:51;;;;;;;22.10;14.23;;;0.20;94.60;;;;;;5088137;28;20064;-87
2020/12/01 05:23:24;;;;;;;23.43;16.73;;;0.20;94.70;;;;;;5090407;28;20045;-87
2020/12/01 05:26:09;;;;;;;24.10;16.60;;;0.20;94.70;;;;;;5089461;28;20031;-86
2020/12/01 05:28:54;;;;;;;27.55;15.93;;;0.30;95.10;;;;;;5063658;28;20032;-85
2020/12/01 05:31:24;;;;;;;24.80;16.50;;;0.30;94.80;;;;;;5079426;28;20131;-87
2020/12/01 05:34:01;;;;;;;32.13;17.50;;;0.30;94.50;;;;;;5076087;28;20051;-85
2020/12/01 05:36:37;;;;;;;26.55;15.57;;;0.20;94.60;;;;;;5079986;28;20028;-90
2020/12/01 05:39:18;;;;;;;29.42;18.48;;;0.30;94.60;;;;;;5079724;28;20048;-89
2020/12/01 05:41:47;;;;;;;26.33;16.73;;;0.30;94.50;;;;;;5075034;28;20025;-88
2020/12/01 05:44:23;;;;;;;25.33;15.57;;;0.30;94.50;;;;;;5082524;28;20085;-88
2020/12/01 05:47:00;;;;;;;24.67;17.53;;;0.30;94.50;;;;;;5077851;28;20025;-87
2020/12/01 05:49:45;;;;;;;25.07;15.40;;;0.30;94.50;;;;;;5073502;28;20470;-88
2020/12/01 05:52:17;;;;;;;26.48;17.52;;;0.40;94.50;;;;;;5092034;28;20024;-87
2020/12/01 05:54:47;;;;;;;26.95;18.27;;;0.30;94.40;;;;;;5079847;28;20050;-89
2020/12/01 05:57:25;;;;;;;20.38;14.93;;;0.30;94.30;;;;;;5065202;28;20489;-88
2020/12/01 05:59:57;;;;;;;25.55;17.02;;;0.30;94.20;;;;;;5084919;28;20058;-87
2020/12/01 06:02:44;;;;;;;25.50;16.45;;;0.30;94.10;;;;;;5078580;28;20013;-86
2020/12/01 06:05:14;;;;;;;26.45;17.52;;;0.30;94.00;;;;;;5071696;28;20396;-87
2020/12/01 06:07:46;;;;;;;29.42;17.63;;;0.20;94.00;;;;;;5078927;28;20021;-88
2020/12/01 06:10:36;;;;;;;29.20;18.15;;;0.20;93.90;;;;;;5083015;28;20415;-87
2020/12/01 06:13:05;;;;;;;28.42;17.58;;;0.20;93.90;;;;;;5073872;28;20442;-89
2020/12/01 06:15:34;;;;;;;22.88;17.35;;;0.20;93.90;;;;;;5077958;28;20048;-89
2020/12/01 06:18:09;;;;;;;23.30;16.90;;;0.20;93.90;;;;;;5078856;28;20028;-88
2020/12/01 06:20:42;;;;;;;25.63;14.68;;;0.20;93.90;;;;;;5080621;28;20530;-89
2020/12/01 06:23:40;;;;;;;21.20;15.27;;;0.20;94.00;;;;;;5093943;28;20016;-89
2020/12/01 06:26:14;;;;;;;25.85;17.40;;;0.20;93.90;;;;;;5076925;28;20036;-89
2020/12/01 06:28:58;;;;;;;22.70;15.52;;;0.10;93.90;;;;;;5081044;28;20092;-87
2020/12/01 06:31:57;;;;;;;27.08;17.15;;;0.10;93.80;;;;;;5079548;28;20021;-88
2020/12/01 06:34:34;;;;;;;27.15;17.15;;;0.00;93.90;;;;;;5080646;28;20031;-88
2020/12/01 06:37:19;;;;;;;;;;;0.00;94.10;;;;;;5081323;28;20429;-87
2020/12/01 06:39:49;;;;;;;27.45;18.60;;;0.10;94.10;;;;;;5076535;28;19919;-89
2020/12/01 06:42:21;;;;;;;33.80;22.13;;;0.10;94.20;;;;;;5087225;28;20020;-87
2020/12/01 06:44:57;;;;;;;24.38;14.40;;;0.20;94.30;;;;;;5084880;28;20124;-88
2020/12/01 06:47:31;;;;;;;28.50;17.92;;;0.20;94.20;;;;;;5080752;28;20012;-87
2020/12/01 06:50:01;;;;;;;30.02;18.50;;;0.20;94.20;;;;;;5078009;28;20036;-87
2020/12/01 06:52:27;;;;;;;27.75;18.30;;;0.20;94.20;;;;;;5080628;28;20017;-89
2020/12/01 06:54:56;;;;;;;32.50;20.08;;;0.20;94.20;;;;;;5080134;28;20489;-85
2020/12/01 06:57:27;;;;;;;36.25;21.95;;;0.20;94.30;;;;;;5083391;28;20023;-88
2020/12/01 06:59:54;;;;;;;33.42;22.05;;;0.20;94.40;;;;;;5078339;28;20112;-87
2020/12/01 07:02:26;;;;;;;32.40;18.23;;;0.30;94.50;;;;;;5081300;28;20111;-86
2020/12/01 07:05:13;;;;;;;36.92;23.00;;;0.30;94.40;;;;;;5080820;28;20024;-86
2020/12/01 07:07:44;;;;;;;38.70;23.95;;;0.20;94.50;;;;;;5078805;28;20093;-89
2020/12/01 07:10:33;;;;;;;30.33;19.67;;;0.30;94.50;;;;;;5068123;28;20024;-87
2020/12/01 07:13:13;;;;;;;33.90;21.25;;;0.30;94.50;;;;;;5083892;28;20042;-85
2020/12/01 07:15:46;;;;;;;36.28;22.33;;;0.30;94.50;;;;;;5102500;28;20076;-88
2020/12/01 07:18:27;;;;;;;35.55;21.63;;;0.30;94.40;;;;;;5088073;28;20092;-87
2020/12/01 07:21:32;;;;;;;33.47;21.40;;;0.30;94.40;;;;;;5080710;28;20050;-87
2020/12/01 07:24:39;;;;;;;30.25;18.15;;;0.30;94.30;;;;;;5055104;28;20032;-87
2020/12/01 07:27:35;;;;;;;35.13;22.58;;;0.30;94.40;;;;;;5085598;28;20466;-86
2020/12/01 07:30:12;;;;;;;31.23;19.10;;;0.20;94.40;;;;;;5073245;28;20107;-86
2020/12/01 07:32:56;;;;;;;32.28;20.05;;;0.20;94.50;;;;;;5090398;28;20016;-91
2020/12/01 07:35:46;;;;;;;30.95;21.15;;;0.20;94.60;;;;;;5098242;28;20025;-90
2020/12/01 07:38:37;;;;;;;36.08;22.25;;;0.20;94.50;;;;;;5085004;28;20111;-90
2020/12/01 07:41:24;;;;;;;31.95;19.02;;;0.30;94.50;;;;;;5089530;28;20033;-91
2020/12/01 07:44:09;;;;;;;31.85;21.33;;;0.20;94.40;;;;;;5090619;28;20084;-93
2020/12/01 07:49:23;;;;;;;27.98;17.70;;;0.10;94.30;;;;;;5076820;28;20096;-88
2020/12/01 07:51:54;;;;;;;34.58;19.85;;;0.10;94.40;;;;;;5084025;28;20029;-89
2020/12/01 07:54:23;;;;;;;30.73;20.75;;;0.10;94.30;;;;;;5083342;28;20020;-87
2020/12/01 07:56:49;;;;;;;30.60;19.25;;;0.10;94.50;;;;;;5079716;28;20085;-88
2020/12/01 07:59:15;;;;;;;31.70;20.42;;;0.10;94.40;;;;;;5084559;28;20084;-86
2020/12/01 08:01:52;;;;;;;32.03;18.92;;;0.20;94.30;;;;;;5095559;28;20028;-87
2020/12/01 08:04:20;;;;;;;32.03;19.48;;;0.10;94.20;;;;;;5088748;28;20033;-88
2020/12/01 08:07:01;;;;;;;32.70;18.95;;;0.10;94.20;;;;;;5083719;28;20100;-91
2020/12/01 08:09:27;;;;;;;29.67;18.10;;;0.10;94.10;;;;;;5077916;28;20023;-90
2020/12/01 08:11:55;;;;;;;32.15;21.73;;;0.10;94.20;;;;;;5075588;28;20021;-87
2020/12/01 08:14:24;;;;;;;32.90;21.55;;;0.10;94.20;;;;;;5080162;28;20035;-94
2020/12/01 08:17:13;;;;;;;31.05;19.90;;;0.10;94.20;;;;;;5077237;28;20027;-90
2020/12/01 08:19:40;;;;;;;33.00;19.52;;;0.20;94.10;;;;;;5073684;28;20170;-93
2020/12/01 08:22:08;;;;;;;29.58;17.67;;;0.10;93.90;;;;;;5077728;28;20028;-88
2020/12/01 08:24:39;;;;;;;34.95;19.00;;;0.10;93.90;;;;;;5087988;28;20020;-90
2020/12/01 08:27:50;;;;;;;34.47;19.27;;;0.10;93.80;;;;;;5092709;28;20461;-90
2020/12/01 08:30:43;;;;;;;29.63;17.83;;;0.10;93.80;;;;;;5081103;28;20036;-87
2020/12/01 08:33:29;;;;;;;24.73;17.52;;;0.10;93.80;;;;;;5084186;28;20060;-90
2020/12/01 08:36:11;;;;;;;33.38;17.45;;;0.20;93.80;;;;;;5088405;28;20489;-87
2020/12/01 08:39:06;;;;;;;31.02;20.55;;;0.20;93.60;;;;;;5087015;28;20063;-88
2020/12/01 08:41:38;;;;;;;33.08;19.27;;;0.20;93.60;;;;;;5099299;28;20036;-89
2020/12/01 08:44:13;;;;;;;29.02;18.05;;;0.20;93.70;;;;;;5084151;28;20028;-88
2020/12/01 08:46:46;;;;;;;29.55;18.00;;;0.20;93.60;;;;;;5081127;28;20484;-85
2020/12/01 08:49:41;;;;;;;23.52;15.38;;;0.20;93.40;;;;;;5084256;28;20082;-85
2020/12/01 08:52:50;;;;;;;29.30;17.95;;;0.20;93.40;;;;;;5074070;28;20020;-83
2020/12/01 08:55:34;;;;;;;27.38;17.83;;;0.10;93.20;;;;;;5080940;28;20051;-83
2020/12/01 08:58:18;;;;;;;29.80;19.00;;;0.00;93.10;;;;;;5073555;28;20023;-86
2020/12/01 09:01:01;;;;;;;30.48;19.23;;;0.10;93.20;;;;;;5081775;28;20082;-84
2020/12/01 09:03:28;;;;;;;27.90;18.85;;;0.10;93.10;;;;;;5068111;28;20024;-87
2020/12/01 09:05:57;;;;;;;25.42;18.40;;;0.20;93.10;;;;;;5083126;28;20073;-88
2020/12/01 09:17:24;;;;;;;33.15;19.42;;;0.20;92.80;;;;;;5079955;28;20020;-87
2020/12/01 09:22:26;;;;;;;28.48;16.65;;;0.20;92.70;;;;;;5086795;28;20032;-86
2020/12/01 09:25:06;;;;;;;26.67;16.25;;;0.20;92.50;;;;;;5090035;28;20054;-85
2020/12/01 09:27:34;;;;;;;29.50;16.95;;;0.10;92.50;;;;;;5090936;28;20036;-84
2020/12/01 09:30:01;;;;;;;29.42;18.92;;;0.00;92.40;;;;;;5077641;28;20021;-87
2020/12/01 09:32:27;;;;;;;35.33;18.37;;;0.00;92.60;;;;;;5080294;28;20032;-88
2020/12/01 09:34:52;;;;;;;30.27;17.90;;;0.00;92.40;;;;;;5086724;28;20459;-87
2020/12/01 09:37:19;;;;;;;28.75;16.65;;;-0.10;92.50;;;;;;5082222;28;20029;-85
2020/12/01 09:39:46;;;;;;;29.42;20.00;;;-0.10;92.60;;;;;;5088927;28;20038;-87
2020/12/01 09:42:24;;;;;;;39.50;19.80;;;-0.10;92.70;;;;;;5082446;28;20024;-85
2020/12/01 09:47:36;;;;;;;35.30;20.60;;;0.10;92.70;;;;;;5078560;28;20084;-88
2020/12/01 09:50:08;;;;;;;33.40;21.20;;;0.10;92.60;;;;;;5083668;28;20097;-86
2020/12/01 09:58:05;;;;;;;32.70;23.02;;;0.20;92.40;;;;;;5080294;28;20448;-87
2020/12/01 10:10:57;;;;;;;29.73;21.00;;;0.30;91.90;;;;;;5084826;28;20021;-87
2020/12/01 10:13:46;;;;;;;33.55;20.60;;;0.30;92.10;;;;;;5078828;28;20059;-84
2020/12/01 10:34:28;;;;;;;36.15;19.70;;;0.20;92.20;;;;;;5082641;28;20017;-86
2020/12/01 10:36:56;;;;;;;27.42;17.75;;;0.20;92.20;;;;;;5080007;28;20022;-87
2020/12/01 10:39:22;;;;;;;32.85;20.13;;;0.20;92.10;;;;;;5077585;28;20143;-86
2020/12/01 10:41:50;;;;;;;31.33;19.70;;;0.20;92.10;;;;;;5081960;28;20031;-86
2020/12/01 10:44:16;;;;;;;27.70;17.13;;;0.30;92.00;;;;;;5077153;28;20493;-88
2020/12/01 10:46:46;;;;;;;26.58;18.88;;;0.30;91.80;;;;;;5086870;28;20089;-86
2020/12/01 10:49:13;;;;;;;28.40;19.92;;;0.30;91.60;;;;;;5084482;28;20063;-87
2020/12/01 10:51:39;;;;;;;33.50;18.93;;;0.20;91.60;;;;;;5081224;28;20059;-88
2020/12/01 10:54:04;;;;;;;28.05;17.95;;;0.20;91.70;;;;;;5078249;28;20020;-92
2020/12/01 10:56:30;;;;;;;30.23;19.08;;;0.20;91.40;;;;;;5076738;28;20378;-91
2020/12/01 10:58:56;;;;;;;32.63;20.33;;;0.00;91.20;;;;;;5085615;28;20377;-90
2020/12/01 11:01:22;;;;;;;31.95;19.88;;;-0.10;91.50;;;;;;5080686;28;20020;-88
2020/12/01 11:03:48;;;;;;;28.42;19.00;;;-0.10;91.70;;;;;;5085166;28;20060;-88
2020/12/01 11:06:14;;;;;;;29.13;16.77;;;-0.10;91.70;;;;;;5089398;28;20029;-88
2020/12/01 11:08:40;;;;;;;29.17;17.92;;;-0.20;91.70;;;;;;5078069;28;20432;-88
2020/12/01 11:11:06;;;;;;;33.22;19.73;;;-0.20;91.90;;;;;;5076520;28;20108;-86
2020/12/01 11:13:32;;;;;;;33.67;20.83;;;-0.30;92.00;;;;;;5078003;28;20025;-87
2020/12/01 11:15:58;;;;;;;36.67;21.92;;;-0.20;92.10;;;;;;5077561;28;20093;-86
2020/12/01 11:18:24;;;;;;;33.83;20.13;;;-0.10;91.90;;;;;;5075989;28;20074;-84
2020/12/01 11:20:50;;;;;;;30.25;19.48;;;0.00;91.80;;;;;;5083519;28;20103;-87
2020/12/01 11:23:16;;;;;;;33.40;20.02;;;0.10;91.60;;;;;;5086004;28;20488;-86
2020/12/01 11:25:42;;;;;;;43.40;24.52;;;0.10;91.50;;;;;;5077473;28;20032;-88
2020/12/01 11:28:08;;;;;;;35.03;22.10;;;0.10;91.40;;;;;;5079756;28;20044;-89
2020/12/01 11:30:34;;;;;;;39.33;23.20;;;0.00;91.50;;;;;;5083962;28;20017;-87
2020/12/01 11:33:00;;;;;;;40.38;23.70;;;0.10;91.50;;;;;;5109159;28;20032;-87
2020/12/01 11:35:25;;;;;;;37.28;23.67;;;0.10;91.40;;;;;;5095820;28;20020;-87
2020/12/01 11:37:52;;;;;;;36.78;21.45;;;0.20;91.40;;;;;;5076503;28;20024;-86
2020/12/01 11:40:18;;;;;;;34.67;19.13;;;0.20;91.20;;;;;;5074936;28;20481;-86
2020/12/01 11:42:44;;;;;;;27.90;19.00;;;0.20;91.10;;;;;;5077321;28;20054;-86
2020/12/01 11:45:12;;;;;;;33.35;19.85;;;0.20;91.10;;;;;;5090553;28;20103;-87
2020/12/01 11:47:38;;;;;;;30.17;20.30;;;0.10;90.90;;;;;;5086978;28;20013;-86
2020/12/01 11:50:06;;;;;;;34.72;20.67;;;0.10;91.00;;;;;;5075445;28;20028;-89
2020/12/01 11:52:32;;;;;;;35.92;21.83;;;0.10;91.10;;;;;;5077647;28;20040;-90
2020/12/01 11:54:58;;;;;;;36.95;22.55;;;0.20;91.10;;;;;;5089573;28;20033;-87
2020/12/01 11:57:23;;;;;;;38.67;23.58;;;0.20;91.10;;;;;;5086759;28;20017;-86
2020/12/01 11:59:49;;;;;;;33.70;23.10;;;0.30;91.00;;;;;;5087508;28;20036;-87
2020/12/01 12:02:15;;;;;;;37.58;22.60;;;0.30;90.90;;;;;;5091756;28;20024;-88
2020/12/01 12:04:41;;;;;;;38.65;22.65;;;0.30;90.90;;;;;;5077129;28;20078;-85
2020/12/01 12:07:07;;;;;;;31.67;18.10;;;0.20;90.80;;;;;;5079461;28;20016;-87
2020/12/01 12:09:33;;;;;;;35.17;20.58;;;0.10;90.50;;;;;;5077133;28;20539;-89
2020/12/01 12:11:58;;;;;;;41.58;24.25;;;-0.10;90.80;;;;;;5078241;28;20558;-87
2020/12/01 12:14:24;;;;;;;37.85;20.85;;;-0.10;91.10;;;;;;5088700;28;20027;-86
2020/12/01 12:16:50;;;;;;;29.20;20.10;;;-0.10;91.00;;;;;;5090463;28;20052;-85
2020/12/01 12:19:16;;;;;;;33.25;18.67;;;-0.10;91.10;;;;;;5081496;28;20053;-85
2020/12/01 12:21:42;;;;;;;30.05;19.52;;;-0.20;91.00;;;;;;5087666;28;20016;-85
2020/12/01 12:24:08;;;;;;;35.33;20.25;;;-0.20;91.20;;;;;;5093951;28;20029;-90
2020/12/01 12:26:34;;;;;;;38.90;23.17;;;-0.30;91.00;;;;;;5091868;28;20029;-87
2020/12/01 12:29:00;;;;;;;37.72;22.67;;;-0.40;91.20;;;;;;5072565;28;20024;-90
2020/12/01 12:31:26;;;;;;;46.05;24.13;;;-0.40;91.40;;;;;;5087697;28;20118;-86
2020/12/01 12:33:51;;;;;;;45.53;23.88;;;-0.30;91.50;;;;;;5079967;28;20047;-85
2020/12/01 12:36:19;;;;;;;40.13;23.13;;;-0.30;91.50;;;;;;5079652;28;20099;-88
2020/12/01 12:38:45;;;;;;;29.70;18.15;;;-0.20;91.50;;;;;;5079538;28;20087;-90
2020/12/01 12:41:10;;;;;;;41.30;21.92;;;-0.10;91.50;;;;;;5077498;28;20017;-88
2020/12/01 12:43:36;;;;;;;27.05;16.80;;;-0.10;91.40;;;;;;5090811;28;20043;-85
2020/12/01 12:46:03;;;;;;;26.15;15.80;;;0.00;91.30;;;;;;5086848;28;20017;-85
2020/12/01 12:48:29;;;;;;;29.83;17.83;;;0.10;91.30;;;;;;5075452;28;20099;-86
2020/12/01 12:50:56;;;;;;;24.70;15.88;;;0.00;91.20;;;;;;5073695;28;20024;-86
2020/12/01 12:53:22;;;;;;;24.75;17.08;;;0.00;91.30;;;;;;5075934;28;20100;-87
2020/12/01 12:55:48;;;;;;;33.22;19.55;;;-0.10;91.20;;;;;;5084703;28;20029;-89
2020/12/01 12:58:14;;;;;;;34.50;21.85;;;-0.20;91.30;;;;;;5088253;28;20389;-86
2020/12/01 13:00:40;;;;;;;33.72;21.25;;;-0.40;91.40;;;;;;5075139;28;20024;-87
2020/12/01 13:03:06;;;;;;;33.97;20.13;;;-0.40;91.70;;;;;;5081623;28;20016;-86
2020/12/01 13:05:32;;;;;;;33.70;19.70;;;-0.30;91.80;;;;;;5087540;28;20550;-87
2020/12/01 13:07:58;;;;;;;28.35;18.05;;;-0.20;92.00;;;;;;5086753;28;20020;-88
2020/12/01 13:10:25;;;;;;;26.10;16.20;;;-0.10;91.70;;;;;;5082027;28;20093;-86
2020/12/01 13:12:51;;;;;;;24.48;16.27;;;-0.10;91.60;;;;;;5081769;28;20050;-92
2020/12/01 13:15:18;;;;;;;29.13;17.25;;;-0.10;91.50;;;;;;5079863;28;20020;-89
2020/12/01 13:17:44;;;;;;;;;;;-0.10;91.50;;;;;;5084519;28;20032;-86
2020/12/01 13:20:19;;;;;;;30.23;17.05;;;-0.10;91.50;;;;;;5086568;28;20019;-85
2020/12/01 13:22:45;;;;;;;24.90;15.85;;;-0.10;91.60;;;;;;5089089;28;20036;-88
2020/12/01 13:25:11;;;;;;;29.08;15.90;;;-0.10;91.70;;;;;;5091437;28;20074;-88
2020/12/01 13:27:37;;;;;;;24.38;15.68;;;-0.10;91.70;;;;;;5100658;28;20092;-88
2020/12/01 13:30:06;;;;;;;23.17;14.55;;;-0.10;91.70;;;;;;5095194;28;20024;-88
2020/12/01 13:32:32;;;;;;;26.48;16.48;;;-0.10;91.70;;;;;;5092286;28;20021;-87
2020/12/01 13:34:58;;;;;;;29.58;18.10;;;-0.10;91.70;;;;;;5085873;28;20017;-87
2020/12/01 13:37:23;;;;;;;27.13;16.55;;;0.00;91.70;;;;;;5087965;28;20017;-87
2020/12/01 13:39:49;;;;;;;35.83;19.70;;;0.00;91.70;;;;;;5085039;28;20070;-86
2020/12/01 13:42:15;;;;;;;28.17;17.08;;;0.00;91.60;;;;;;5081595;28;20051;-86
2020/12/01 13:44:41;;;;;;;29.77;17.60;;;0.00;91.60;;;;;;5070096;28;20036;-89
2020/12/01 13:47:07;;;;;;;23.63;16.23;;;-0.10;91.60;;;;;;5077390;28;20020;-91